sensor_id;sensor_type;location;lat;lon;timestamp;temperature;humidity
16999;DHT22;10211;49.476;11.010;2023-02-01T00:00:14;4.30;99.90
16999;DHT22;10211;49.476;11.010;2023-02-01T00:02:43;4.30;99.90
16999;DHT22;10211;49.476;11.010;2023-02-01T00:05:10;4.30;99.90
16999;DHT22;10211;49.476;11.010;2023-02-01T00:07:37;4.20;99.90
16999;DHT22;10211;49.476;11.010;2023-02-01T00:10:05;4.20;99.90
16999;DHT22;10211;49.476;11.010;2023-02-01T00:12:34;4.20;99.90
16999;DHT22;10211;49.476;11.010;2023-02-01T00:15:01;4.20;99.90
16999;DHT22;10211;49.476;11.010;2023-02-01T00:17:28;4.20;99.90
16999;DHT22;10211;49.476;11.010;2023-02-01T00:19:56;4.30;99.90
16999;DHT22;10211;49.476;11.010;2023-02-01T00:22:22;4.30;99.90
16999;DHT22;10211;49.476;11.010;2023-02-01T00:24:49;4.30;99.90
16999;DHT22;10211;49.476;11.010;2023-02-01T00:27:16;4.30;99.90
16999;DHT22;10211;49.476;11.010;2023-02-01T00:29:45;4.30;99.90
16999;DHT22;10211;49.476;11.010;2023-02-01T00:32:12;4.40;99.90
16999;DHT22;10211;49.476;11.010;2023-02-01T00:34:39;4.40;99.90
16999;DHT22;10211;49.476;11.010;2023-02-01T00:37:07;4.40;99.90
16999;DHT22;10211;49.476;11.010;2023-02-01T00:39:34;4.40;99.90
16999;DHT22;10211;49.476;11.010;2023-02-01T00:42:01;4.40;99.90
16999;DHT22;10211;49.476;11.010;2023-02-01T00:44:28;4.40;99.90
16999;DHT22;10211;49.476;11.010;2023-02-01T00:46:58;4.40;99.90
16999;DHT22;10211;49.476;11.010;2023-02-01T00:49:25;4.50;99.90
16999;DHT22;10211;49.476;11.010;2023-02-01T00:51:52;4.50;99.90
16999;DHT22;10211;49.476;11.010;2023-02-01T00:54:20;4.50;99.90
16999;DHT22;10211;49.476;11.010;2023-02-01T00:56:47;4.50;99.90
16999;DHT22;10211;49.476;11.010;2023-02-01T00:59:14;4.50;99.90
16999;DHT22;10211;49.476;11.010;2023-02-01T01:01:40;4.50;99.90
16999;DHT22;10211;49.476;11.010;2023-02-01T01:04:07;4.50;99.90
16999;DHT22;10211;49.476;11.010;2023-02-01T01:06:34;4.50;99.90
16999;DHT22;10211;49.476;11.010;2023-02-01T01:09:03;4.50;99.90
16999;DHT22;10211;49.476;11.010;2023-02-01T01:11:34;4.50;99.90
16999;DHT22;10211;49.476;11.010;2023-02-01T01:14:01;4.50;99.90
16999;DHT22;10211;49.476;11.010;2023-02-01T01:16:30;4.50;99.90
16999;DHT22;10211;49.476;11.010;2023-02-01T01:18:57;4.50;99.90
16999;DHT22;10211;49.476;11.010;2023-02-01T01:21:24;4.50;99.90
16999;DHT22;10211;49.476;11.010;2023-02-01T01:23:51;4.50;99.90
16999;DHT22;10211;49.476;11.010;2023-02-01T01:26:20;4.40;99.90
16999;DHT22;10211;49.476;11.010;2023-02-01T01:28:49;4.40;99.90
16999;DHT22;10211;49.476;11.010;2023-02-01T01:31:18;4.40;99.90
16999;DHT22;10211;49.476;11.010;2023-02-01T01:33:48;4.40;99.90
16999;DHT22;10211;49.476;11.010;2023-02-01T01:36:16;4.30;99.90
16999;DHT22;10211;49.476;11.010;2023-02-01T01:38:43;4.30;99.90
16999;DHT22;10211;49.476;11.010;2023-02-01T01:41:13;4.30;99.90
16999;DHT22;10211;49.476;11.010;2023-02-01T01:43:54;4.30;99.90
16999;DHT22;10211;49.476;11.010;2023-02-01T01:46:23;4.30;99.90
16999;DHT22;10211;49.476;11.010;2023-02-01T01:48:55;4.30;99.90
16999;DHT22;10211;49.476;11.010;2023-02-01T01:51:24;4.30;99.90
16999;DHT22;10211;49.476;11.010;2023-02-01T01:53:58;4.30;99.90
16999;DHT22;10211;49.476;11.010;2023-02-01T01:56:27;4.30;99.90
16999;DHT22;10211;49.476;11.010;2023-02-01T01:58:56;4.30;99.90
16999;DHT22;10211;49.476;11.010;2023-02-01T02:01:23;4.30;99.90
16999;DHT22;10211;49.476;11.010;2023-02-01T02:03:51;4.20;99.90
16999;DHT22;10211;49.476;11.010;2023-02-01T02:06:26;4.30;99.90
16999;DHT22;10211;49.476;11.010;2023-02-01T02:08:54;4.30;99.90
16999;DHT22;10211;49.476;11.010;2023-02-01T02:11:23;4.30;99.90
16999;DHT22;10211;49.476;11.010;2023-02-01T02:13:51;4.30;99.90
16999;DHT22;10211;49.476;11.010;2023-02-01T02:16:34;4.30;99.90
16999;DHT22;10211;49.476;11.010;2023-02-01T02:19:25;4.40;99.90
16999;DHT22;10211;49.476;11.010;2023-02-01T02:22:09;4.40;99.90
16999;DHT22;10211;49.476;11.010;2023-02-01T02:25:00;4.40;99.90
16999;DHT22;10211;49.476;11.010;2023-02-01T02:27:40;4.50;99.90
16999;DHT22;10211;49.476;11.010;2023-02-01T02:30:44;4.50;99.90
16999;DHT22;10211;49.476;11.010;2023-02-01T02:36:26;4.50;99.90
16999;DHT22;10211;49.476;11.010;2023-02-01T02:39:03;4.50;99.90
16999;DHT22;10211;49.476;11.010;2023-02-01T02:41:41;4.50;99.90
16999;DHT22;10211;49.476;11.010;2023-02-01T02:44:45;4.50;99.90
16999;DHT22;10211;49.476;11.010;2023-02-01T02:47:35;4.50;99.90
16999;DHT22;10211;49.476;11.010;2023-02-01T02:50:10;4.40;99.90
16999;DHT22;10211;49.476;11.010;2023-02-01T02:53:01;4.40;99.90
16999;DHT22;10211;49.476;11.010;2023-02-01T02:55:46;4.40;99.90
16999;DHT22;10211;49.476;11.010;2023-02-01T02:58:15;4.40;99.90
16999;DHT22;10211;49.476;11.010;2023-02-01T03:01:01;4.40;99.90
16999;DHT22;10211;49.476;11.010;2023-02-01T03:03:46;4.40;99.90
16999;DHT22;10211;49.476;11.010;2023-02-01T03:06:38;4.40;99.90
16999;DHT22;10211;49.476;11.010;2023-02-01T03:09:10;4.40;99.90
16999;DHT22;10211;49.476;11.010;2023-02-01T03:11:40;4.40;99.90
16999;DHT22;10211;49.476;11.010;2023-02-01T03:14:30;4.40;99.90
16999;DHT22;10211;49.476;11.010;2023-02-01T03:17:03;4.40;99.90
16999;DHT22;10211;49.476;11.010;2023-02-01T03:19:36;4.40;99.90
16999;DHT22;10211;49.476;11.010;2023-02-01T03:22:12;4.40;99.90
16999;DHT22;10211;49.476;11.010;2023-02-01T03:24:42;4.30;99.90
16999;DHT22;10211;49.476;11.010;2023-02-01T03:27:14;4.30;99.90
16999;DHT22;10211;49.476;11.010;2023-02-01T03:29:47;4.30;99.90
16999;DHT22;10211;49.476;11.010;2023-02-01T03:32:15;4.30;99.90
16999;DHT22;10211;49.476;11.010;2023-02-01T03:34:42;4.20;99.90
16999;DHT22;10211;49.476;11.010;2023-02-01T03:37:15;4.20;99.90
16999;DHT22;10211;49.476;11.010;2023-02-01T03:39:46;4.30;99.90
16999;DHT22;10211;49.476;11.010;2023-02-01T03:42:17;4.30;99.90
16999;DHT22;10211;49.476;11.010;2023-02-01T03:44:49;4.30;99.90
16999;DHT22;10211;49.476;11.010;2023-02-01T03:47:20;4.30;99.90
16999;DHT22;10211;49.476;11.010;2023-02-01T03:49:50;4.30;99.90
16999;DHT22;10211;49.476;11.010;2023-02-01T03:52:22;4.30;99.90
16999;DHT22;10211;49.476;11.010;2023-02-01T03:54:52;4.30;99.90
16999;DHT22;10211;49.476;11.010;2023-02-01T03:57:24;4.30;99.90
16999;DHT22;10211;49.476;11.010;2023-02-01T03:59:52;4.30;99.90
16999;DHT22;10211;49.476;11.010;2023-02-01T04:02:19;4.30;99.90
16999;DHT22;10211;49.476;11.010;2023-02-01T04:04:45;4.30;99.90
16999;DHT22;10211;49.476;11.010;2023-02-01T04:07:12;4.30;99.90
16999;DHT22;10211;49.476;11.010;2023-02-01T04:09:40;4.40;99.90
16999;DHT22;10211;49.476;11.010;2023-02-01T04:12:07;4.40;99.90
16999;DHT22;10211;49.476;11.010;2023-02-01T04:14:34;4.40;99.90
16999;DHT22;10211;49.476;11.010;2023-02-01T04:17:00;4.40;99.90
16999;DHT22;10211;49.476;11.010;2023-02-01T04:19:27;4.40;99.90
16999;DHT22;10211;49.476;11.010;2023-02-01T04:21:54;4.40;99.90
16999;DHT22;10211;49.476;11.010;2023-02-01T04:24:21;4.40;99.90
16999;DHT22;10211;49.476;11.010;2023-02-01T04:26:49;4.40;99.90
16999;DHT22;10211;49.476;11.010;2023-02-01T04:29:15;4.50;99.90
16999;DHT22;10211;49.476;11.010;2023-02-01T04:31:42;4.50;99.90
16999;DHT22;10211;49.476;11.010;2023-02-01T04:34:09;4.50;99.90
16999;DHT22;10211;49.476;11.010;2023-02-01T04:36:36;4.50;99.90
16999;DHT22;10211;49.476;11.010;2023-02-01T04:39:03;4.40;99.90
16999;DHT22;10211;49.476;11.010;2023-02-01T04:41:30;4.40;99.90
16999;DHT22;10211;49.476;11.010;2023-02-01T04:43:58;4.30;99.90
16999;DHT22;10211;49.476;11.010;2023-02-01T04:46:24;4.30;99.90
16999;DHT22;10211;49.476;11.010;2023-02-01T04:48:51;4.20;99.90
16999;DHT22;10211;49.476;11.010;2023-02-01T04:51:18;4.20;99.90
16999;DHT22;10211;49.476;11.010;2023-02-01T04:53:45;4.10;99.90
16999;DHT22;10211;49.476;11.010;2023-02-01T04:56:12;4.10;99.90
16999;DHT22;10211;49.476;11.010;2023-02-01T04:58:39;4.10;99.90
16999;DHT22;10211;49.476;11.010;2023-02-01T05:01:07;4.10;99.90
16999;DHT22;10211;49.476;11.010;2023-02-01T05:03:34;4.10;99.90
16999;DHT22;10211;49.476;11.010;2023-02-01T05:06:01;4.10;99.90
16999;DHT22;10211;49.476;11.010;2023-02-01T05:08:29;4.10;99.90
16999;DHT22;10211;49.476;11.010;2023-02-01T05:10:56;4.10;99.90
16999;DHT22;10211;49.476;11.010;2023-02-01T05:13:24;4.00;99.90
16999;DHT22;10211;49.476;11.010;2023-02-01T05:16:09;4.00;99.90
16999;DHT22;10211;49.476;11.010;2023-02-01T05:18:36;4.00;99.90
16999;DHT22;10211;49.476;11.010;2023-02-01T05:21:03;4.00;99.90
16999;DHT22;10211;49.476;11.010;2023-02-01T05:23:30;4.00;99.90
16999;DHT22;10211;49.476;11.010;2023-02-01T05:26:00;4.00;99.90
16999;DHT22;10211;49.476;11.010;2023-02-01T05:28:28;4.00;99.90
16999;DHT22;10211;49.476;11.010;2023-02-01T05:30:55;3.90;99.90
16999;DHT22;10211;49.476;11.010;2023-02-01T05:33:23;3.90;99.90
16999;DHT22;10211;49.476;11.010;2023-02-01T05:35:49;3.90;99.90
16999;DHT22;10211;49.476;11.010;2023-02-01T05:38:16;3.90;99.90
16999;DHT22;10211;49.476;11.010;2023-02-01T05:40:43;3.90;99.90
16999;DHT22;10211;49.476;11.010;2023-02-01T05:43:15;3.90;99.90
16999;DHT22;10211;49.476;11.010;2023-02-01T05:45:41;3.90;99.90
16999;DHT22;10211;49.476;11.010;2023-02-01T05:48:08;3.90;99.90
16999;DHT22;10211;49.476;11.010;2023-02-01T05:50:37;3.80;99.90
16999;DHT22;10211;49.476;11.010;2023-02-01T05:53:04;3.80;99.90
16999;DHT22;10211;49.476;11.010;2023-02-01T05:55:31;3.80;99.90
16999;DHT22;10211;49.476;11.010;2023-02-01T05:57:58;3.70;99.90
16999;DHT22;10211;49.476;11.010;2023-02-01T06:00:25;3.70;99.90
16999;DHT22;10211;49.476;11.010;2023-02-01T06:02:52;3.60;99.90
16999;DHT22;10211;49.476;11.010;2023-02-01T06:05:18;3.60;99.90
16999;DHT22;10211;49.476;11.010;2023-02-01T06:07:46;3.50;99.90
16999;DHT22;10211;49.476;11.010;2023-02-01T06:10:15;3.50;99.90
16999;DHT22;10211;49.476;11.010;2023-02-01T06:12:42;3.40;99.90
16999;DHT22;10211;49.476;11.010;2023-02-01T06:15:10;3.40;99.90
16999;DHT22;10211;49.476;11.010;2023-02-01T06:17:37;3.40;99.90
16999;DHT22;10211;49.476;11.010;2023-02-01T06:20:07;3.30;99.90
16999;DHT22;10211;49.476;11.010;2023-02-01T06:22:34;3.30;99.90
16999;DHT22;10211;49.476;11.010;2023-02-01T06:25:03;3.30;99.90
16999;DHT22;10211;49.476;11.010;2023-02-01T06:27:30;3.30;99.90
16999;DHT22;10211;49.476;11.010;2023-02-01T06:29:57;3.30;99.90
16999;DHT22;10211;49.476;11.010;2023-02-01T06:32:24;3.30;99.90
16999;DHT22;10211;49.476;11.010;2023-02-01T06:34:51;3.30;99.90
16999;DHT22;10211;49.476;11.010;2023-02-01T06:37:18;3.30;99.90
16999;DHT22;10211;49.476;11.010;2023-02-01T06:39:45;3.40;99.90
16999;DHT22;10211;49.476;11.010;2023-02-01T06:42:13;3.40;99.90
16999;DHT22;10211;49.476;11.010;2023-02-01T06:44:40;3.40;99.90
16999;DHT22;10211;49.476;11.010;2023-02-01T06:47:07;3.40;99.90
16999;DHT22;10211;49.476;11.010;2023-02-01T06:49:34;3.40;99.90
16999;DHT22;10211;49.476;11.010;2023-02-01T06:52:00;3.50;99.90
16999;DHT22;10211;49.476;11.010;2023-02-01T06:54:27;3.40;99.90
16999;DHT22;10211;49.476;11.010;2023-02-01T06:56:55;3.50;99.90
16999;DHT22;10211;49.476;11.010;2023-02-01T06:59:23;3.50;99.90
16999;DHT22;10211;49.476;11.010;2023-02-01T07:01:50;3.50;99.90
16999;DHT22;10211;49.476;11.010;2023-02-01T07:04:18;3.50;99.90
16999;DHT22;10211;49.476;11.010;2023-02-01T07:06:45;3.50;99.90
16999;DHT22;10211;49.476;11.010;2023-02-01T07:09:12;3.50;99.90
16999;DHT22;10211;49.476;11.010;2023-02-01T07:11:39;3.50;99.90
16999;DHT22;10211;49.476;11.010;2023-02-01T07:14:06;3.50;99.90
16999;DHT22;10211;49.476;11.010;2023-02-01T07:16:35;3.50;99.90
16999;DHT22;10211;49.476;11.010;2023-02-01T07:19:02;3.50;99.90
16999;DHT22;10211;49.476;11.010;2023-02-01T07:21:29;3.50;99.90
16999;DHT22;10211;49.476;11.010;2023-02-01T07:23:56;3.50;99.90
16999;DHT22;10211;49.476;11.010;2023-02-01T07:26:23;3.50;99.90
16999;DHT22;10211;49.476;11.010;2023-02-01T07:28:49;3.60;99.90
16999;DHT22;10211;49.476;11.010;2023-02-01T07:31:17;3.60;99.90
16999;DHT22;10211;49.476;11.010;2023-02-01T07:33:48;3.60;99.90
16999;DHT22;10211;49.476;11.010;2023-02-01T07:36:17;3.70;99.90
16999;DHT22;10211;49.476;11.010;2023-02-01T07:38:45;3.70;99.90
16999;DHT22;10211;49.476;11.010;2023-02-01T07:41:13;3.80;99.90
16999;DHT22;10211;49.476;11.010;2023-02-01T07:43:41;3.80;99.90
16999;DHT22;10211;49.476;11.010;2023-02-01T07:46:08;3.90;99.90
16999;DHT22;10211;49.476;11.010;2023-02-01T07:48:35;3.90;99.90
16999;DHT22;10211;49.476;11.010;2023-02-01T07:51:05;4.00;99.90
16999;DHT22;10211;49.476;11.010;2023-02-01T07:53:33;4.00;99.90
16999;DHT22;10211;49.476;11.010;2023-02-01T07:56:15;4.10;99.90
16999;DHT22;10211;49.476;11.010;2023-02-01T07:58:42;4.10;99.90
16999;DHT22;10211;49.476;11.010;2023-02-01T08:01:14;4.10;99.90
16999;DHT22;10211;49.476;11.010;2023-02-01T08:03:51;4.20;99.90
16999;DHT22;10211;49.476;11.010;2023-02-01T08:06:20;4.20;99.90
16999;DHT22;10211;49.476;11.010;2023-02-01T08:08:49;4.20;99.90
16999;DHT22;10211;49.476;11.010;2023-02-01T08:11:16;4.20;99.90
16999;DHT22;10211;49.476;11.010;2023-02-01T08:13:44;4.20;99.90
16999;DHT22;10211;49.476;11.010;2023-02-01T08:16:13;4.20;99.90
16999;DHT22;10211;49.476;11.010;2023-02-01T08:18:40;4.30;99.90
16999;DHT22;10211;49.476;11.010;2023-02-01T08:21:10;4.40;99.90
16999;DHT22;10211;49.476;11.010;2023-02-01T08:23:39;4.40;99.90
16999;DHT22;10211;49.476;11.010;2023-02-01T08:26:11;4.50;99.90
16999;DHT22;10211;49.476;11.010;2023-02-01T08:28:41;4.70;99.90
16999;DHT22;10211;49.476;11.010;2023-02-01T08:31:10;4.70;99.90
16999;DHT22;10211;49.476;11.010;2023-02-01T08:33:37;4.70;99.90
16999;DHT22;10211;49.476;11.010;2023-02-01T08:36:06;4.80;99.90
16999;DHT22;10211;49.476;11.010;2023-02-01T08:38:34;4.90;99.90
16999;DHT22;10211;49.476;11.010;2023-02-01T08:41:06;4.90;99.90
16999;DHT22;10211;49.476;11.010;2023-02-01T08:43:33;4.80;99.90
16999;DHT22;10211;49.476;11.010;2023-02-01T08:46:00;4.90;99.90
16999;DHT22;10211;49.476;11.010;2023-02-01T08:48:27;4.90;99.90
16999;DHT22;10211;49.476;11.010;2023-02-01T08:50:53;4.90;99.90
16999;DHT22;10211;49.476;11.010;2023-02-01T08:53:20;4.80;99.90
16999;DHT22;10211;49.476;11.010;2023-02-01T08:55:47;4.90;99.90
16999;DHT22;10211;49.476;11.010;2023-02-01T08:58:15;5.10;99.90
16999;DHT22;10211;49.476;11.010;2023-02-01T09:00:43;5.10;99.90
16999;DHT22;10211;49.476;11.010;2023-02-01T09:03:11;5.10;99.90
16999;DHT22;10211;49.476;11.010;2023-02-01T09:05:38;5.10;99.90
16999;DHT22;10211;49.476;11.010;2023-02-01T09:08:06;5.10;99.90
16999;DHT22;10211;49.476;11.010;2023-02-01T09:10:34;5.20;99.90
16999;DHT22;10211;49.476;11.010;2023-02-01T09:13:00;5.10;99.90
16999;DHT22;10211;49.476;11.010;2023-02-01T09:15:29;5.00;99.90
16999;DHT22;10211;49.476;11.010;2023-02-01T09:17:56;5.00;99.90
16999;DHT22;10211;49.476;11.010;2023-02-01T09:20:23;5.00;99.90
16999;DHT22;10211;49.476;11.010;2023-02-01T09:22:50;5.00;99.90
16999;DHT22;10211;49.476;11.010;2023-02-01T09:25:18;5.00;99.90
16999;DHT22;10211;49.476;11.010;2023-02-01T09:27:44;5.00;99.90
16999;DHT22;10211;49.476;11.010;2023-02-01T09:30:12;4.80;99.90
16999;DHT22;10211;49.476;11.010;2023-02-01T09:32:40;4.70;99.90
16999;DHT22;10211;49.476;11.010;2023-02-01T09:35:07;4.40;99.90
16999;DHT22;10211;49.476;11.010;2023-02-01T09:37:34;4.10;99.90
16999;DHT22;10211;49.476;11.010;2023-02-01T09:40:01;3.90;99.90
16999;DHT22;10211;49.476;11.010;2023-02-01T09:42:53;3.80;99.90
16999;DHT22;10211;49.476;11.010;2023-02-01T09:45:26;3.80;99.90
16999;DHT22;10211;49.476;11.010;2023-02-01T09:48:00;4.10;99.90
16999;DHT22;10211;49.476;11.010;2023-02-01T09:50:34;4.20;99.90
16999;DHT22;10211;49.476;11.010;2023-02-01T09:53:05;4.30;99.90
16999;DHT22;10211;49.476;11.010;2023-02-01T09:55:38;4.50;99.90
16999;DHT22;10211;49.476;11.010;2023-02-01T09:58:09;4.80;99.90
16999;DHT22;10211;49.476;11.010;2023-02-01T10:00:39;5.00;99.90
16999;DHT22;10211;49.476;11.010;2023-02-01T10:03:12;5.00;99.90
16999;DHT22;10211;49.476;11.010;2023-02-01T10:08:39;4.90;99.90
16999;DHT22;10211;49.476;11.010;2023-02-01T10:11:20;4.90;99.90
16999;DHT22;10211;49.476;11.010;2023-02-01T10:13:55;4.90;99.90
16999;DHT22;10211;49.476;11.010;2023-02-01T10:16:36;4.90;99.90
16999;DHT22;10211;49.476;11.010;2023-02-01T10:19:22;4.90;99.90
16999;DHT22;10211;49.476;11.010;2023-02-01T10:21:54;4.90;99.90
16999;DHT22;10211;49.476;11.010;2023-02-01T10:24:36;5.00;99.90
16999;DHT22;10211;49.476;11.010;2023-02-01T10:27:13;5.10;99.90
16999;DHT22;10211;49.476;11.010;2023-02-01T10:29:45;5.20;99.90
16999;DHT22;10211;49.476;11.010;2023-02-01T10:32:15;5.30;99.90
16999;DHT22;10211;49.476;11.010;2023-02-01T10:34:46;5.40;99.90
16999;DHT22;10211;49.476;11.010;2023-02-01T10:37:20;5.40;99.90
16999;DHT22;10211;49.476;11.010;2023-02-01T10:39:52;5.50;99.90
16999;DHT22;10211;49.476;11.010;2023-02-01T10:42:21;5.50;99.90
16999;DHT22;10211;49.476;11.010;2023-02-01T10:44:48;5.50;99.90
16999;DHT22;10211;49.476;11.010;2023-02-01T10:47:15;5.50;99.90
16999;DHT22;10211;49.476;11.010;2023-02-01T10:49:52;5.50;99.90
16999;DHT22;10211;49.476;11.010;2023-02-01T10:52:26;5.40;99.90
16999;DHT22;10211;49.476;11.010;2023-02-01T10:55:27;5.30;99.90
16999;DHT22;10211;49.476;11.010;2023-02-01T10:57:56;5.20;99.90
16999;DHT22;10211;49.476;11.010;2023-02-01T11:00:24;5.10;99.90
16999;DHT22;10211;49.476;11.010;2023-02-01T11:02:51;5.00;99.90
16999;DHT22;10211;49.476;11.010;2023-02-01T11:05:22;4.90;99.90
16999;DHT22;10211;49.476;11.010;2023-02-01T11:07:51;4.90;99.90
16999;DHT22;10211;49.476;11.010;2023-02-01T11:10:37;4.90;99.90
16999;DHT22;10211;49.476;11.010;2023-02-01T11:13:04;5.00;99.90
16999;DHT22;10211;49.476;11.010;2023-02-01T11:15:31;5.00;99.90
16999;DHT22;10211;49.476;11.010;2023-02-01T11:18:15;5.00;99.90
16999;DHT22;10211;49.476;11.010;2023-02-01T11:20:44;5.10;99.90
16999;DHT22;10211;49.476;11.010;2023-02-01T11:23:15;5.10;99.90
16999;DHT22;10211;49.476;11.010;2023-02-01T11:25:48;5.20;99.90
16999;DHT22;10211;49.476;11.010;2023-02-01T11:28:16;5.30;99.90
16999;DHT22;10211;49.476;11.010;2023-02-01T11:30:45;5.30;99.90
16999;DHT22;10211;49.476;11.010;2023-02-01T11:33:15;5.40;99.90
16999;DHT22;10211;49.476;11.010;2023-02-01T11:35:45;5.40;99.90
16999;DHT22;10211;49.476;11.010;2023-02-01T11:38:21;5.40;99.90
16999;DHT22;10211;49.476;11.010;2023-02-01T11:40:48;5.40;99.90
16999;DHT22;10211;49.476;11.010;2023-02-01T11:43:23;5.40;99.90
16999;DHT22;10211;49.476;11.010;2023-02-01T11:45:54;5.40;99.90
16999;DHT22;10211;49.476;11.010;2023-02-01T11:48:23;5.40;99.90
16999;DHT22;10211;49.476;11.010;2023-02-01T11:51:05;5.50;99.90
16999;DHT22;10211;49.476;11.010;2023-02-01T11:53:46;5.50;99.90
16999;DHT22;10211;49.476;11.010;2023-02-01T11:56:23;5.40;99.90
16999;DHT22;10211;49.476;11.010;2023-02-01T11:59:05;5.50;99.90
16999;DHT22;10211;49.476;11.010;2023-02-01T12:01:44;5.60;99.90
16999;DHT22;10211;49.476;11.010;2023-02-01T12:04:48;5.50;99.90
16999;DHT22;10211;49.476;11.010;2023-02-01T12:07:26;5.50;99.90
16999;DHT22;10211;49.476;11.010;2023-02-01T12:10:05;5.40;99.90
16999;DHT22;10211;49.476;11.010;2023-02-01T12:12:39;5.50;99.90
16999;DHT22;10211;49.476;11.010;2023-02-01T12:15:26;5.70;99.90
16999;DHT22;10211;49.476;11.010;2023-02-01T12:18:11;5.80;99.90
16999;DHT22;10211;49.476;11.010;2023-02-01T12:21:06;5.60;99.90
16999;DHT22;10211;49.476;11.010;2023-02-01T12:23:55;5.60;99.90
16999;DHT22;10211;49.476;11.010;2023-02-01T12:26:46;5.60;99.90
16999;DHT22;10211;49.476;11.010;2023-02-01T12:29:33;5.50;99.90
16999;DHT22;10211;49.476;11.010;2023-02-01T12:32:11;5.50;99.90
16999;DHT22;10211;49.476;11.010;2023-02-01T12:35:04;5.50;99.90
16999;DHT22;10211;49.476;11.010;2023-02-01T12:37:45;5.50;99.90
16999;DHT22;10211;49.476;11.010;2023-02-01T12:40:29;5.50;99.90
16999;DHT22;10211;49.476;11.010;2023-02-01T12:43:01;5.50;99.90
16999;DHT22;10211;49.476;11.010;2023-02-01T12:45:32;5.50;99.90
16999;DHT22;10211;49.476;11.010;2023-02-01T12:48:05;5.50;99.90
16999;DHT22;10211;49.476;11.010;2023-02-01T12:50:41;5.50;99.90
16999;DHT22;10211;49.476;11.010;2023-02-01T12:53:17;5.60;99.90
16999;DHT22;10211;49.476;11.010;2023-02-01T12:55:50;5.60;99.90
16999;DHT22;10211;49.476;11.010;2023-02-01T12:58:22;5.70;99.90
16999;DHT22;10211;49.476;11.010;2023-02-01T13:00:54;5.70;99.90
16999;DHT22;10211;49.476;11.010;2023-02-01T13:03:32;5.80;99.90
16999;DHT22;10211;49.476;11.010;2023-02-01T13:06:04;5.80;99.90
16999;DHT22;10211;49.476;11.010;2023-02-01T13:08:39;5.70;99.90
16999;DHT22;10211;49.476;11.010;2023-02-01T13:11:11;5.60;99.90
16999;DHT22;10211;49.476;11.010;2023-02-01T13:13:46;5.50;99.90
16999;DHT22;10211;49.476;11.010;2023-02-01T13:16:16;5.50;99.90
16999;DHT22;10211;49.476;11.010;2023-02-01T13:18:47;5.40;99.90
16999;DHT22;10211;49.476;11.010;2023-02-01T13:21:18;5.30;99.90
16999;DHT22;10211;49.476;11.010;2023-02-01T13:23:48;5.30;99.90
16999;DHT22;10211;49.476;11.010;2023-02-01T13:26:16;5.30;99.90
16999;DHT22;10211;49.476;11.010;2023-02-01T13:28:46;5.20;99.90
16999;DHT22;10211;49.476;11.010;2023-02-01T13:35:02;5.20;99.90
16999;DHT22;10211;49.476;11.010;2023-02-01T13:37:52;5.30;99.90
16999;DHT22;10211;49.476;11.010;2023-02-01T13:40:35;5.30;99.90
16999;DHT22;10211;49.476;11.010;2023-02-01T13:43:11;5.40;99.90
16999;DHT22;10211;49.476;11.010;2023-02-01T13:45:44;5.50;99.90
16999;DHT22;10211;49.476;11.010;2023-02-01T13:48:19;5.60;99.90
16999;DHT22;10211;49.476;11.010;2023-02-01T13:50:51;5.60;99.90
16999;DHT22;10211;49.476;11.010;2023-02-01T13:53:23;5.70;99.90
16999;DHT22;10211;49.476;11.010;2023-02-01T13:55:55;5.80;99.90
16999;DHT22;10211;49.476;11.010;2023-02-01T13:58:32;5.80;99.90
16999;DHT22;10211;49.476;11.010;2023-02-01T14:01:33;5.80;99.90
16999;DHT22;10211;49.476;11.010;2023-02-01T14:04:02;5.80;99.90
16999;DHT22;10211;49.476;11.010;2023-02-01T14:06:39;5.80;99.90
16999;DHT22;10211;49.476;11.010;2023-02-01T14:09:16;5.90;99.90
16999;DHT22;10211;49.476;11.010;2023-02-01T14:11:49;5.90;99.90
16999;DHT22;10211;49.476;11.010;2023-02-01T14:14:50;5.90;99.90
16999;DHT22;10211;49.476;11.010;2023-02-01T14:17:36;5.80;99.90
16999;DHT22;10211;49.476;11.010;2023-02-01T14:23:28;5.80;99.90
16999;DHT22;10211;49.476;11.010;2023-02-01T14:26:10;5.80;99.90
16999;DHT22;10211;49.476;11.010;2023-02-01T14:28:41;5.70;99.90
16999;DHT22;10211;49.476;11.010;2023-02-01T14:34:16;5.70;99.90
16999;DHT22;10211;49.476;11.010;2023-02-01T14:36:47;5.60;99.90
16999;DHT22;10211;49.476;11.010;2023-02-01T14:39:24;5.60;99.90
16999;DHT22;10211;49.476;11.010;2023-02-01T14:41:56;5.50;99.90
16999;DHT22;10211;49.476;11.010;2023-02-01T14:44:35;5.50;99.90
16999;DHT22;10211;49.476;11.010;2023-02-01T14:47:29;5.50;99.90
16999;DHT22;10211;49.476;11.010;2023-02-01T14:50:17;5.50;99.90
16999;DHT22;10211;49.476;11.010;2023-02-01T14:52:47;5.50;99.90
16999;DHT22;10211;49.476;11.010;2023-02-01T14:55:21;5.40;99.90
16999;DHT22;10211;49.476;11.010;2023-02-01T14:57:53;5.40;99.90
16999;DHT22;10211;49.476;11.010;2023-02-01T15:00:26;5.40;99.90
16999;DHT22;10211;49.476;11.010;2023-02-01T15:03:01;5.40;99.90
16999;DHT22;10211;49.476;11.010;2023-02-01T15:05:40;5.40;99.90
16999;DHT22;10211;49.476;11.010;2023-02-01T15:08:14;5.40;99.90
16999;DHT22;10211;49.476;11.010;2023-02-01T15:10:45;5.40;99.90
16999;DHT22;10211;49.476;11.010;2023-02-01T15:13:19;5.40;99.90
16999;DHT22;10211;49.476;11.010;2023-02-01T15:15:59;5.40;99.90
16999;DHT22;10211;49.476;11.010;2023-02-01T15:18:28;5.30;99.90
16999;DHT22;10211;49.476;11.010;2023-02-01T15:20:58;5.30;99.90
16999;DHT22;10211;49.476;11.010;2023-02-01T15:23:25;5.30;99.90
16999;DHT22;10211;49.476;11.010;2023-02-01T15:25:53;5.30;99.90
16999;DHT22;10211;49.476;11.010;2023-02-01T15:28:20;5.30;99.90
16999;DHT22;10211;49.476;11.010;2023-02-01T15:30:56;5.30;99.90
16999;DHT22;10211;49.476;11.010;2023-02-01T15:33:23;5.30;99.90
16999;DHT22;10211;49.476;11.010;2023-02-01T15:35:52;5.30;99.90
16999;DHT22;10211;49.476;11.010;2023-02-01T15:38:36;5.30;99.90
16999;DHT22;10211;49.476;11.010;2023-02-01T15:41:06;5.40;99.90
16999;DHT22;10211;49.476;11.010;2023-02-01T15:43:35;5.30;99.90
16999;DHT22;10211;49.476;11.010;2023-02-01T15:46:07;5.30;99.90
16999;DHT22;10211;49.476;11.010;2023-02-01T15:48:37;5.30;99.90
16999;DHT22;10211;49.476;11.010;2023-02-01T15:51:12;5.30;99.90
16999;DHT22;10211;49.476;11.010;2023-02-01T15:53:44;5.30;99.90
16999;DHT22;10211;49.476;11.010;2023-02-01T15:56:12;5.30;99.90
16999;DHT22;10211;49.476;11.010;2023-02-01T15:58:42;5.20;99.90
16999;DHT22;10211;49.476;11.010;2023-02-01T16:01:12;5.20;99.90
16999;DHT22;10211;49.476;11.010;2023-02-01T16:03:41;5.10;99.90
16999;DHT22;10211;49.476;11.010;2023-02-01T16:06:11;5.20;99.90
16999;DHT22;10211;49.476;11.010;2023-02-01T16:08:49;5.20;99.90
16999;DHT22;10211;49.476;11.010;2023-02-01T16:11:26;5.10;99.90
16999;DHT22;10211;49.476;11.010;2023-02-01T16:13:55;5.20;99.90